EDDMDTTD

Guest
Details From EDDM - Muenchen Franz-josef Strauss
To DTTD - Remada
Flight Number -
Tags Generated
Created
Modified
Stats Distance 966 nm / 1,788 km
Max Altitude 0 ft / 0 m
Waypoints 4
Social Downloads 1
Likes 0
Share VATSIM

Download

Looking for another format? Having issues loading an existing format? Contact us
Advertisement - Login to hide

Notes

Generated

Route

EDDM BOA53 REMDA DTTD

ID Type Via Altitude Latitude Longitude Leg Dist Tot Dist Heading (true) Name
O EDDM APT - 0 ft / 0 m 48.34069˚ 11.75108˚ - 0 nm - -
BOA53 FIX - 0 ft / 0 m 44.60611˚ 11.36857˚ 224 nm 224 nm 184° / 184° -
REMDA FIX - 0 ft / 0 m 32.29611˚ 10.37611˚ 740 nm 965 nm 184° / 183° -
O DTTD APT - 0 ft / 0 m 32.29625˚ 10.37721˚ 0 nm 965 nm 81° / 81° -

Altitude Profile

Advertisement - Login to hide

Weather


0- 5 10 15 20 25 30 35+ Temperature / ° C

Clouds and Precipitation
Forecast for 2018-05-24 06:00 UTC. Updated 2 hours ago

Ground ~20,000 ft ~40,000 ft Winds

EDDM

Details ICAO EDDM (MUC)
Name Muenchen Franz-Josef Strauss
Region Germany - Civil
Timezone Europe/Berlin (UTC+2.0)
Stats Elevation 1,487 ft / 453 m (AMSL)
Location 48.353786° 11.786117°
Runways 2
Magnetic Variation 3.215° E

METAR

EDDM 240650Z 26004KT 230V300 9000 -RA BKN006 BKN080 16/14 Q1019 BECMG BKN010

Decode

TAF

TAF EDDM 240500Z 2406/2512 24005KT 9999 SCT020 BKN045 TEMPO 2406/2408 BKN009 PROB30 TEMPO 2411/2419 24015G25KT TSRA BKN030CB BECMG 2417/2419 VRB02KT BECMG 2422/2502 4000 BCFG PROB30 TEMPO 2502/2505 0700 FG BECMG 2506/2508 35005KT

Decode

Departure Runways

ID Width Length Bearing (true) Bearing (mag) Surface Threshold Offset Overrun Length
08L 197 ft / 60 m 13,086 ft / 3,989 m 83.38° 80.17° Concrete 0 ft / 0 m 0 ft / 0 m
08R 197 ft / 60 m 13,086 ft / 3,989 m 83.37° 80.16° Concrete 0 ft / 0 m 0 ft / 0 m
26L 197 ft / 60 m 13,086 ft / 3,989 m 263.41° 260.20° Concrete 0 ft / 0 m 0 ft / 0 m
26R 197 ft / 60 m 13,086 ft / 3,989 m 263.42° 260.21° Concrete 0 ft / 0 m 0 ft / 0 m

DTTD

Details ICAO DTTD
Name REMADA
Region Tunisia
Timezone Africa/Tunis (UTC+1.0)
Stats Elevation 1,004 ft / 306 m (AMSL)
Location 32.306146° 10.382098°
Runways 1
Magnetic Variation 2.206° E

METAR

DTTD 240700Z 10006KT 060V150 CAVOK 20/13 Q1018

Decode

TAF

Not found

Destination Runways

ID Width Length Bearing (true) Bearing (mag) Surface Threshold Offset Overrun Length
02 148 ft / 45 m 7,827 ft / 2,386 m 22.67° 20.46° Asphalt 0 ft / 0 m 0 ft / 0 m
20 148 ft / 45 m 7,827 ft / 2,386 m 202.67° 200.46° Asphalt 0 ft / 0 m 0 ft / 0 m